Time;durP1;ratioP1;P1;durP2;ratioP2;P2;SDS_P1;SDS_P2;PMS_P1;PMS_P2;Temp;Humidity;BMP_temperature;BMP_pressure;BME280_temperature;BME280_humidity;BME280_pressure;Samples;Min_cycle;Max_cycle;Signal;HPM_P1;HPM_P2
2022/02/04 00:01:10;;;;;;;8.70;5.10;;;;;;;0.38;72.95;96529.95;104516;1271;1838344;-85
2022/02/04 00:07:04;;;;;;;10.10;4.10;;;;;;;0.43;73.66;96539.58;107469;1271;110960;-84
2022/02/04 00:20:53;;;;;;;2.70;1.90;;;;;;;0.84;76.82;96539.54;104119;1268;2223364;-85
2022/02/04 00:23:29;;;;;;;7.20;3.10;;;;;;;0.82;76.97;96544.38;105713;1270;2113926;-85
2022/02/04 00:26:05;;;;;;;7.10;3.20;;;;;;;0.79;77.50;96546.70;106375;1271;1458001;-85
2022/02/04 00:28:47;;;;;;;7.80;2.90;;;;;;;0.76;77.53;96544.13;106485;1269;1275364;-83
2022/02/04 00:31:30;;;;;;;8.70;3.80;;;;;;;0.73;77.93;96545.66;101499;1268;5156270;-84
2022/02/04 00:34:06;;;;;;;10.30;3.80;;;;;;;0.70;78.33;96539.71;107414;1268;194205;-85
2022/02/04 00:36:47;;;;;;;6.40;3.10;;;;;;;0.68;78.41;96544.18;107243;1268;120638;-84
2022/02/04 00:39:22;;;;;;;6.80;2.80;;;;;;;0.61;78.84;96557.22;107310;1268;116536;-84
2022/02/04 00:41:56;;;;;;;4.60;2.70;;;;;;;0.54;79.57;96558.52;103569;1270;2021806;-85
2022/02/04 00:44:31;;;;;;;5.70;3.40;;;;;;;0.46;80.43;96565.27;106068;1270;2123387;-84
2022/02/04 00:47:10;;;;;;;8.10;4.00;;;;;;;0.38;81.04;96562.61;107380;1270;173179;-85
2022/02/04 00:49:57;;;;;;;9.80;3.80;;;;;;;0.26;81.77;96557.66;106328;1270;1190489;-84
2022/02/04 00:52:39;;;;;;;10.50;4.10;;;;;;;0.17;83.07;96552.81;106177;1270;1737485;-84
2022/02/04 00:55:23;;;;;;;;;;;;;;;0.08;84.33;96551.11;105877;1270;2090985;-85
2022/02/04 01:06:28;;;;;;;8.80;4.30;;;;;;;0.04;84.91;96548.84;99668;1270;4428355;-85
2022/02/04 01:13:11;;;;;;;5.30;3.00;;;;;;;-0.06;86.71;96535.35;107112;1270;202862;-84
2022/02/04 01:26:23;;;;;;;;;;;;;;;0.07;88.98;96484.45;107187;1268;123664;-85
2022/02/04 01:29:08;;;;;;;5.50;2.20;;;;;;;0.08;88.85;96482.35;105921;1270;1823293;-84
2022/02/04 01:31:44;;;;;;;4.50;2.00;;;;;;;0.09;89.14;96467.23;105456;1270;2478353;-84
2022/02/04 01:34:19;;;;;;;4.70;2.30;;;;;;;0.12;89.45;96460.61;107099;1270;154095;-85
2022/02/04 01:36:52;;;;;;;5.90;2.40;;;;;;;0.12;90.14;96446.14;103139;1268;5328220;-85
2022/02/04 01:39:26;;;;;;;5.10;2.30;;;;;;;0.15;90.19;96449.81;107164;1268;140129;-85
2022/02/04 01:42:02;;;;;;;4.80;1.90;;;;;;;0.17;90.24;96447.35;107070;1270;156322;-85
2022/02/04 01:44:38;;;;;;;6.00;2.90;;;;;;;0.20;90.73;96445.70;106173;1270;1554872;-85
2022/02/04 01:47:12;;;;;;;4.30;2.00;;;;;;;0.22;91.28;96439.86;105957;1270;1842465;-85
2022/02/04 01:49:50;;;;;;;3.20;1.60;;;;;;;0.24;91.40;96434.14;107239;1270;129465;-85
2022/02/04 01:52:21;;;;;;;4.50;2.10;;;;;;;0.28;91.71;96427.41;103083;1270;5479098;-85
2022/02/04 01:54:55;;;;;;;3.50;1.90;;;;;;;0.31;91.61;96423.81;107357;1270;129704;-85
2022/02/04 01:57:39;;;;;;;5.40;2.60;;;;;;;0.33;91.75;96411.71;105299;1270;2393311;-85
2022/02/04 02:00:12;;;;;;;4.30;2.00;;;;;;;0.34;92.14;96411.79;107283;1270;127685;-85
2022/02/04 02:02:46;;;;;;;4.30;2.00;;;;;;;0.34;91.95;96417.57;101803;1270;5568454;-85
2022/02/04 02:05:17;;;;;;;5.10;2.10;;;;;;;0.36;92.20;96414.29;104449;1270;2002413;-84
2022/02/04 02:07:53;;;;;;;4.10;1.70;;;;;;;0.40;92.38;96409.86;106139;1268;1500996;-84
2022/02/04 02:10:30;;;;;;;2.50;1.60;;;;;;;0.43;92.06;96412.00;106462;1269;1198495;-85
2022/02/04 02:13:15;;;;;;;3.00;1.90;;;;;;;0.48;92.32;96406.65;104615;1270;2043784;-84
2022/02/04 02:15:57;;;;;;;7.40;1.50;;;;;;;0.52;91.98;96400.70;107090;1269;152754;-84
2022/02/04 02:35:50;;;;;;;4.40;2.00;;;;;;;0.70;90.26;96381.55;107336;1268;208866;-85
2022/02/04 02:47:08;;;;;;;;;;;;;;;0.84;89.65;96366.31;105416;1270;2557243;-84
2022/02/04 02:50:10;;;;;;;6.10;1.40;;;;;;;0.86;89.76;96358.36;107097;1270;234670;-84
2022/02/04 02:53:04;;;;;;;2.90;1.50;;;;;;;0.88;89.73;96366.44;107298;1270;134471;-84
2022/02/04 02:55:43;;;;;;;4.50;1.80;;;;;;;0.92;89.63;96365.37;106117;1270;1582231;-80
2022/02/04 02:58:22;;;;;;;3.90;1.70;;;;;;;0.98;89.72;96352.18;107316;1270;116535;-85
2022/02/04 03:01:00;;;;;;;4.30;1.40;;;;;;;1.03;89.53;96353.71;107265;1270;114527;-84
2022/02/04 03:03:35;;;;;;;3.10;1.50;;;;;;;1.07;89.30;96360.48;105587;1270;2499852;-84
2022/02/04 03:06:08;;;;;;;2.60;1.20;;;;;;;1.10;89.56;96348.18;106354;1267;1234511;-84
2022/02/04 03:08:39;;;;;;;2.50;1.30;;;;;;;1.14;89.32;96361.23;106059;1270;1511978;-84
2022/02/04 03:11:12;;;;;;;4.60;1.60;;;;;;;1.17;89.14;96361.27;105845;1270;2034261;-84
2022/02/04 03:13:43;;;;;;;2.40;1.30;;;;;;;1.19;89.13;96361.35;105117;1269;1800015;-84
2022/02/04 03:16:17;;;;;;;3.00;1.50;;;;;;;1.18;88.89;96356.06;107299;1270;124614;-84
2022/02/04 03:18:51;;;;;;;3.30;1.80;;;;;;;1.17;88.81;96349.21;107225;1270;180887;-84
2022/02/04 03:21:27;;;;;;;5.90;1.90;;;;;;;1.12;88.65;96353.45;107270;1270;178479;-84
2022/02/04 03:24:03;;;;;;;6.50;2.30;;;;;;;1.09;88.84;96367.48;107163;1270;133530;-84
2022/02/04 03:26:43;;;;;;;3.80;1.90;;;;;;;1.06;88.53;96357.08;107635;1270;136291;-84
2022/02/04 03:29:20;;;;;;;6.70;3.00;;;;;;;1.05;88.96;96351.40;107397;1270;146629;-84
2022/02/04 03:31:55;;;;;;;3.20;2.30;;;;;;;1.02;89.17;96346.79;105871;1270;1801830;-84
2022/02/04 03:34:26;;;;;;;5.20;2.70;;;;;;;0.98;89.34;96349.41;105563;1270;2288436;-84
2022/02/04 03:36:58;;;;;;;5.10;2.40;;;;;;;0.97;89.39;96349.02;107058;1270;158107;-84
2022/02/04 03:39:32;;;;;;;6.60;3.40;;;;;;;0.96;89.31;96355.51;105686;1268;2031939;-85
2022/02/04 03:42:03;;;;;;;7.50;3.40;;;;;;;0.94;89.56;96353.27;107332;1270;191146;-84
2022/02/04 03:44:36;;;;;;;6.90;3.10;;;;;;;0.90;89.66;96349.46;107381;1270;145561;-85
2022/02/04 03:47:07;;;;;;;5.90;3.10;;;;;;;0.86;89.47;96350.00;107220;1270;160167;-84
2022/02/04 03:49:38;;;;;;;5.70;3.70;;;;;;;0.83;89.58;96355.17;107349;1270;196618;-84
2022/02/04 03:52:10;;;;;;;6.40;3.40;;;;;;;0.82;89.93;96359.23;107338;1270;124889;-84
2022/02/04 03:54:41;;;;;;;6.60;3.80;;;;;;;0.82;89.86;96353.54;107402;1269;164515;-84
2022/02/04 03:57:12;;;;;;;9.10;3.50;;;;;;;0.83;90.03;96361.91;107373;1269;158242;-83
2022/02/04 03:59:43;;;;;;;8.30;4.30;;;;;;;0.86;89.62;96348.88;107270;1270;160920;-84
2022/02/04 04:02:14;;;;;;;9.80;4.00;;;;;;;0.87;89.37;96339.86;107117;1270;160332;-84
2022/02/04 04:04:46;;;;;;;6.60;3.10;;;;;;;0.88;89.34;96338.69;107343;1270;126994;-84
2022/02/04 04:07:17;;;;;;;8.00;4.10;;;;;;;0.87;88.97;96337.78;107252;1269;163461;-84
2022/02/04 04:09:53;;;;;;;9.90;4.20;;;;;;;0.86;88.99;96340.52;107427;1270;105421;-84
2022/02/04 04:12:24;;;;;;;8.90;3.80;;;;;;;0.89;88.85;96337.67;107271;1270;128242;-84
2022/02/04 04:14:58;;;;;;;5.60;3.10;;;;;;;0.92;88.58;96343.09;107276;1270;142417;-84
2022/02/04 04:17:37;;;;;;;6.20;3.30;;;;;;;0.93;88.57;96346.29;107261;1270;144647;-85
2022/02/04 04:20:13;;;;;;;8.60;3.90;;;;;;;0.95;88.17;96345.15;107281;1270;133920;-84
2022/02/04 04:22:45;;;;;;;7.00;3.10;;;;;;;1.00;88.02;96339.28;107253;1270;125136;-85
2022/02/04 04:25:16;;;;;;;9.90;4.70;;;;;;;1.04;87.62;96338.80;106043;1270;1820462;-85
2022/02/04 04:27:49;;;;;;;6.30;4.10;;;;;;;1.07;87.44;96335.38;107313;1270;127064;-84
2022/02/04 04:30:23;;;;;;;12.40;5.60;;;;;;;1.07;87.50;96338.08;107443;1268;105449;-85
2022/02/04 04:32:56;;;;;;;8.40;4.90;;;;;;;1.04;86.97;96338.92;105842;1270;1957181;-85
2022/02/04 04:35:28;;;;;;;7.10;3.80;;;;;;;1.03;87.12;96342.40;107234;1270;173242;-85
2022/02/04 04:38:07;;;;;;;8.30;4.30;;;;;;;1.03;87.03;96339.11;107653;1268;99319;-84
2022/02/04 04:41:03;;;;;;;5.70;3.10;;;;;;;1.03;86.91;96335.50;105966;1268;1868959;-85
2022/02/04 04:43:57;;;;;;;5.60;4.00;;;;;;;1.01;86.78;96335.17;107494;1270;142100;-85
2022/02/04 05:26:22;;;;;;;8.30;4.70;;;;;;;1.24;84.68;96304.11;107485;1270;161363;-84
2022/02/04 05:29:00;;;;;;;7.00;3.90;;;;;;;1.22;84.37;96307.41;107418;1270;171429;-84
2022/02/04 05:31:33;;;;;;;10.80;5.80;;;;;;;1.21;84.27;96302.23;107657;1270;90779;-84
2022/02/04 05:34:04;;;;;;;6.20;3.30;;;;;;;1.22;84.20;96298.27;107380;1268;170758;-84
2022/02/04 05:36:41;;;;;;;9.50;3.50;;;;;;;1.26;83.71;96295.55;106107;1270;1866914;-82
2022/02/04 05:39:13;;;;;;;6.30;3.40;;;;;;;1.28;83.45;96298.42;107371;1268;206436;-84
2022/02/04 05:41:48;;;;;;;5.50;3.60;;;;;;;1.31;82.97;96295.52;107302;1270;128643;-84
2022/02/04 05:44:20;;;;;;;10.50;4.10;;;;;;;1.34;82.63;96289.67;106397;1270;1446276;-84
2022/02/04 05:46:55;;;;;;;8.60;4.10;;;;;;;1.34;82.28;96292.92;107396;1270;136226;-84
2022/02/04 05:49:29;;;;;;;6.50;2.70;;;;;;;1.36;81.96;96294.58;107258;1270;199079;-84
2022/02/04 05:52:08;;;;;;;6.30;3.40;;;;;;;1.37;81.41;96298.01;107478;1270;96947;-84
2022/02/04 05:54:49;;;;;;;7.10;4.00;;;;;;;1.38;81.63;96292.00;107411;1270;127570;-84
2022/02/04 05:57:22;;;;;;;8.60;3.80;;;;;;;1.38;81.00;96292.73;107322;1269;149715;-84
2022/02/04 06:00:15;;;;;;;7.00;3.20;;;;;;;1.37;80.63;96292.35;107366;1269;214496;-85
2022/02/04 06:02:55;;;;;;;6.30;3.00;;;;;;;1.38;80.65;96298.23;106610;1270;1241844;-84
2022/02/04 06:05:47;;;;;;;8.80;3.30;;;;;;;1.42;79.91;96294.46;107363;1270;110729;-84
2022/02/04 06:08:38;;;;;;;6.80;3.10;;;;;;;1.41;79.62;96290.85;107321;1268;143837;-85
2022/02/04 06:11:26;;;;;;;8.90;3.50;;;;;;;1.40;79.39;96291.65;107394;1270;125601;-85
2022/02/04 06:22:35;;;;;;;6.50;3.40;;;;;;;1.45;78.46;96287.67;107303;1268;146400;-85
2022/02/04 06:25:08;;;;;;;8.10;3.60;;;;;;;1.48;78.33;96301.96;107345;1268;205990;-83
2022/02/04 06:27:40;;;;;;;6.50;3.10;;;;;;;1.49;78.50;96298.53;106019;1269;1863821;-84
2022/02/04 06:30:14;;;;;;;8.50;4.10;;;;;;;1.51;78.17;96302.42;107198;1270;248218;-84
2022/02/04 06:32:45;;;;;;;6.90;2.80;;;;;;;1.49;78.29;96311.27;107284;1270;198167;-84
2022/02/04 06:35:17;;;;;;;7.70;3.70;;;;;;;1.49;77.94;96305.73;107253;1269;206498;-84
2022/02/04 06:37:48;;;;;;;7.90;3.70;;;;;;;1.51;77.91;96310.42;107199;1270;227046;-85
2022/02/04 06:40:19;;;;;;;7.10;3.30;;;;;;;1.55;77.70;96315.42;107256;1268;205224;-84
2022/02/04 06:42:50;;;;;;;5.60;3.00;;;;;;;1.60;77.66;96302.69;106017;1270;1808531;-84
2022/02/04 06:45:22;;;;;;;6.00;3.50;;;;;;;1.62;77.57;96304.61;106203;1268;1795182;-84
2022/02/04 06:47:54;;;;;;;4.80;2.50;;;;;;;1.65;77.61;96303.83;107386;1270;123060;-84
2022/02/04 06:50:25;;;;;;;7.10;3.30;;;;;;;1.70;77.30;96303.83;107255;1270;145161;-84
2022/02/04 06:52:56;;;;;;;7.00;3.60;;;;;;;1.73;77.24;96295.81;107272;1270;120921;-84
2022/02/04 06:55:27;;;;;;;4.10;2.70;;;;;;;1.77;77.37;96298.95;107290;1270;165040;-84
2022/02/04 06:57:59;;;;;;;7.90;3.70;;;;;;;1.77;76.99;96301.75;107030;1270;225892;-84
2022/02/04 07:00:30;;;;;;;6.10;3.50;;;;;;;1.78;77.13;96302.38;105928;1269;1978490;-85
2022/02/04 07:03:02;;;;;;;6.40;3.70;;;;;;;1.78;76.85;96288.48;107553;1270;250609;-84
2022/02/04 07:05:40;;;;;;;4.10;2.40;;;;;;;1.78;76.47;96295.02;107479;1268;172078;-84
2022/02/04 07:08:19;;;;;;;6.40;3.00;;;;;;;1.82;76.49;96300.74;107219;1270;245969;-84
2022/02/04 07:11:07;;;;;;;9.00;3.70;;;;;;;1.84;76.82;96302.25;106935;1270;201191;-84
2022/02/04 07:13:48;;;;;;;8.30;3.70;;;;;;;1.84;76.49;96290.14;107296;1270;135620;-84
2022/02/04 07:16:30;;;;;;;6.90;3.90;;;;;;;1.89;76.42;96276.63;107480;1269;104184;-84
2022/02/04 07:21:50;;;;;;;8.40;3.60;;;;;;;2.04;76.43;96281.94;107156;1270;160976;-84
2022/02/04 07:24:22;;;;;;;8.10;3.60;;;;;;;2.11;76.14;96284.13;107343;1270;130049;-84
2022/02/04 07:26:53;;;;;;;7.50;3.70;;;;;;;2.20;76.19;96292.98;107195;1270;186561;-84
2022/02/04 07:29:25;;;;;;;8.80;4.30;;;;;;;2.26;75.77;96303.18;107177;1270;189052;-84
2022/02/04 07:31:56;;;;;;;12.30;4.70;;;;;;;2.28;75.67;96303.30;107310;1270;132916;-84
2022/02/04 07:34:41;;;;;;;11.50;4.90;;;;;;;2.27;75.40;96313.52;107169;1268;161928;-84
2022/02/04 07:42:50;;;;;;;9.00;4.20;;;;;;;2.47;75.93;96318.91;107347;1270;201231;-84
2022/02/04 07:45:22;;;;;;;7.80;4.00;;;;;;;2.60;75.68;96319.16;107323;1270;158278;-84
2022/02/04 07:47:54;;;;;;;8.40;4.40;;;;;;;2.74;75.57;96320.07;107394;1270;182409;-84
2022/02/04 07:50:26;;;;;;;10.10;4.90;;;;;;;2.81;75.06;96325.25;107374;1270;154611;-84
2022/02/04 07:52:58;;;;;;;7.70;3.70;;;;;;;2.81;74.20;96322.55;107279;1269;149538;-84
2022/02/04 07:55:30;;;;;;;8.90;4.70;;;;;;;2.80;74.10;96325.61;107353;1270;145334;-84
2022/02/04 07:58:01;;;;;;;8.90;4.90;;;;;;;2.77;73.87;96323.94;107546;1270;141385;-84
2022/02/04 08:00:35;;;;;;;10.10;4.40;;;;;;;2.73;74.13;96321.46;107539;1268;112985;-84
2022/02/04 08:03:20;;;;;;;9.10;4.80;;;;;;;2.67;74.09;96323.60;105854;1269;2155195;-83
2022/02/04 08:05:54;;;;;;;7.10;4.20;;;;;;;2.59;74.18;96316.52;107405;1268;119346;-84
2022/02/04 08:08:33;;;;;;;9.50;4.90;;;;;;;2.57;74.23;96319.15;105532;1268;2530253;-84
2022/02/04 08:11:26;;;;;;;6.80;3.90;;;;;;;2.61;73.99;96319.27;107534;1269;189191;-84
2022/02/04 08:14:22;;;;;;;8.10;4.80;;;;;;;2.66;74.21;96317.89;107313;1270;181167;-84
2022/02/04 08:25:39;;;;;;;9.50;4.90;;;;;;;2.97;73.95;96321.84;107398;1270;105166;-84
2022/02/04 08:37:04;;;;;;;9.70;5.00;;;;;;;3.24;72.56;96314.61;107318;1269;220243;-85
2022/02/04 08:56:44;;;;;;;9.30;5.00;;;;;;;3.61;68.89;96323.90;107436;1270;99723;-82
2022/02/04 08:59:23;;;;;;;8.70;4.60;;;;;;;3.53;69.29;96326.38;107467;1268;111052;-83
2022/02/04 09:02:01;;;;;;;12.40;5.30;;;;;;;3.48;69.55;96325.86;107348;1268;129470;-83
2022/02/04 09:04:38;;;;;;;9.80;4.90;;;;;;;3.44;69.98;96329.85;107928;1270;57243;-83
2022/02/04 09:07:12;;;;;;;13.80;5.40;;;;;;;3.40;69.89;96328.52;107626;1270;137556;-83
2022/02/04 09:21:52;;;;;;;5.20;3.10;;;;;;;3.36;70.58;96317.89;106865;1273;195539;-83
2022/02/04 09:24:24;;;;;;;6.60;3.70;;;;;;;3.43;70.98;96310.14;106116;1268;1792212;-83
2022/02/04 09:26:56;;;;;;;6.80;3.40;;;;;;;3.50;71.02;96310.48;107430;1270;108404;-83
2022/02/04 09:29:27;;;;;;;7.70;4.20;;;;;;;3.56;70.96;96314.37;107332;1270;157190;-83
2022/02/04 09:31:58;;;;;;;8.80;3.30;;;;;;;3.64;71.09;96313.46;107388;1267;106677;-83
2022/02/04 09:34:29;;;;;;;6.90;3.70;;;;;;;3.71;70.77;96312.89;107287;1270;168978;-83
2022/02/04 09:37:01;;;;;;;8.60;4.00;;;;;;;3.73;70.55;96316.16;106015;1270;1914349;-83
2022/02/04 09:39:32;;;;;;;5.90;3.50;;;;;;;3.72;70.32;96318.40;107540;1268;160325;-83
2022/02/04 09:42:04;;;;;;;10.10;5.70;;;;;;;3.71;70.17;96318.14;107658;1270;107684;-84
2022/02/04 09:44:35;;;;;;;11.60;5.90;;;;;;;3.73;70.48;96320.20;107476;1270;228119;-84
2022/02/04 09:47:07;;;;;;;11.20;5.70;;;;;;;3.73;70.60;96316.31;107524;1269;172014;-82
2022/02/04 09:49:43;;;;;;;9.10;4.10;;;;;;;3.75;70.49;96319.23;107244;1270;215168;-83
2022/02/04 10:07:16;;;;;;;8.40;4.40;;;;;;;3.73;70.37;96313.13;107281;1270;166543;-83
2022/02/04 10:13:19;;;;;;;7.10;3.70;;;;;;;3.91;70.11;96302.71;107209;1270;222977;-83
2022/02/04 10:16:02;;;;;;;10.60;5.50;;;;;;;3.99;69.99;96298.67;107399;1270;119428;-83
2022/02/04 10:18:40;;;;;;;11.10;5.10;;;;;;;4.07;69.71;96296.09;107651;1267;127157;-82
2022/02/04 10:21:12;;;;;;;7.30;4.00;;;;;;;4.16;69.58;96293.73;107206;1270;219846;-82
2022/02/04 10:23:58;;;;;;;7.10;3.60;;;;;;;4.22;69.75;96289.40;107361;1269;104380;-82
2022/02/04 10:26:29;;;;;;;6.30;3.80;;;;;;;4.24;69.23;96281.56;107486;1268;107397;-82
2022/02/04 10:29:01;;;;;;;7.70;3.00;;;;;;;4.27;69.11;96282.68;107580;1270;100534;-82
2022/02/04 10:31:33;;;;;;;6.40;3.60;;;;;;;4.30;68.67;96278.77;106493;1270;1531208;-82
2022/02/04 10:34:12;;;;;;;9.90;3.70;;;;;;;4.32;68.55;96274.90;106128;1270;1763226;-83
2022/02/04 10:36:52;;;;;;;8.90;4.60;;;;;;;4.41;68.41;96277.06;107355;1269;124228;-82
2022/02/04 10:39:36;;;;;;;;;;;;;;;4.48;68.40;96276.86;107279;1270;126040;-82
2022/02/04 10:42:24;;;;;;;8.80;4.10;;;;;;;4.47;68.35;96277.90;107047;1270;245607;-82
2022/02/04 10:45:11;;;;;;;8.80;3.90;;;;;;;4.48;68.41;96279.42;107259;1270;167992;-82
2022/02/04 10:48:02;;;;;;;8.90;3.50;;;;;;;4.53;68.50;96274.66;107159;1270;205375;-83
2022/02/04 10:56:40;;;;;;;6.50;3.90;;;;;;;4.63;68.09;96263.83;107394;1270;134597;-82
2022/02/04 11:02:17;;;;;;;8.70;4.50;;;;;;;4.84;66.80;96258.61;106056;1270;1563352;-82
2022/02/04 11:08:13;;;;;;;8.10;4.60;;;;;;;5.04;66.21;96254.88;106938;1273;176837;-82
2022/02/04 11:11:10;;;;;;;7.70;3.70;;;;;;;4.95;65.87;96255.88;107027;1273;148132;-82
2022/02/04 11:31:12;;;;;;;5.80;2.50;;;;;;;4.85;65.95;96235.66;107075;1273;178557;-83
2022/02/04 11:52:02;;;;;;;9.50;4.50;;;;;;;4.47;66.85;96222.35;107230;1270;203298;-82
2022/02/04 11:54:54;;;;;;;8.80;4.40;;;;;;;4.49;66.82;96223.31;107501;1270;135330;-82
2022/02/04 11:57:30;;;;;;;9.40;4.70;;;;;;;4.51;67.05;96226.48;107432;1270;97701;-82
2022/02/04 12:00:04;;;;;;;10.90;5.60;;;;;;;4.52;67.10;96218.44;107357;1270;113272;-83
2022/02/04 12:02:43;;;;;;;10.50;5.40;;;;;;;4.55;67.09;96221.13;107409;1270;128199;-83
2022/02/04 12:05:35;;;;;;;10.90;5.40;;;;;;;4.60;66.81;96220.43;107380;1270;135497;-82
2022/02/04 12:08:24;;;;;;;8.40;3.90;;;;;;;4.63;67.10;96231.23;107591;1270;102343;-83
2022/02/04 12:10:59;;;;;;;7.30;4.00;;;;;;;4.62;66.28;96228.44;105937;1270;2114104;-83
2022/02/04 12:13:53;;;;;;;9.70;5.90;;;;;;;4.54;66.05;96224.48;106135;1270;1997754;-83
2022/02/04 12:16:24;;;;;;;12.30;6.40;;;;;;;4.44;66.28;96229.58;106984;1270;201241;-83
2022/02/04 12:19:10;;;;;;;10.30;5.20;;;;;;;4.39;66.18;96228.12;107100;1270;202437;-83
2022/02/04 12:21:52;;;;;;;11.60;5.70;;;;;;;4.36;66.45;96230.50;105897;1270;1756606;-82
2022/02/04 12:24:42;;;;;;;9.00;5.10;;;;;;;4.34;66.46;96231.52;105823;1270;1974059;-83
2022/02/04 12:27:53;;;;;;;11.90;6.20;;;;;;;4.30;66.43;96225.04;104814;1270;1922291;-82
2022/02/04 12:30:42;;;;;;;10.70;5.80;;;;;;;4.26;66.68;96228.67;106371;1270;1463325;-82
2022/02/04 12:33:16;;;;;;;9.20;5.20;;;;;;;4.19;66.83;96225.49;105949;1270;1907845;-82
2022/02/04 12:35:47;;;;;;;10.40;5.50;;;;;;;4.11;67.17;96220.70;106369;1269;1352887;-82
2022/02/04 12:38:20;;;;;;;12.70;6.10;;;;;;;4.03;67.48;96224.80;107281;1268;165244;-83
2022/02/04 12:41:00;;;;;;;9.50;4.90;;;;;;;4.00;67.79;96219.70;107273;1270;139097;-82
2022/02/04 12:43:36;;;;;;;10.20;5.40;;;;;;;3.96;67.92;96220.28;107128;1270;227671;-82
2022/02/04 12:46:08;;;;;;;11.30;6.00;;;;;;;3.91;68.24;96226.98;107290;1268;164006;-81
2022/02/04 12:48:41;;;;;;;11.00;5.90;;;;;;;3.84;68.33;96220.92;107297;1270;123905;-82
2022/02/04 12:51:13;;;;;;;10.10;5.70;;;;;;;3.80;68.42;96218.52;107211;1270;180410;-82
2022/02/04 12:53:48;;;;;;;13.20;6.70;;;;;;;3.76;68.72;96227.64;106362;1270;1505795;-82
2022/02/04 12:56:37;;;;;;;10.40;5.50;;;;;;;3.73;68.88;96222.26;105825;1269;2150891;-82
2022/02/04 13:02:28;;;;;;;13.40;6.40;;;;;;;3.70;69.25;96222.27;105842;1270;1827541;-83
2022/02/04 13:07:56;;;;;;;12.50;6.10;;;;;;;3.59;69.72;96215.33;106275;1270;1309826;-82
2022/02/04 13:10:29;;;;;;;12.10;6.90;;;;;;;3.56;69.97;96213.45;107026;1270;258620;-83
2022/02/04 13:13:02;;;;;;;11.30;6.30;;;;;;;3.52;70.13;96217.44;106167;1270;1525483;-82
2022/02/04 13:15:35;;;;;;;12.20;6.20;;;;;;;3.50;70.48;96209.38;107408;1270;156208;-83
2022/02/04 13:18:10;;;;;;;11.90;5.40;;;;;;;3.50;70.65;96210.84;107225;1270;164792;-80
2022/02/04 13:20:44;;;;;;;10.40;4.50;;;;;;;3.48;70.97;96207.73;107196;1270;142765;-83
2022/02/04 13:23:19;;;;;;;8.50;4.90;;;;;;;3.44;71.21;96207.06;107278;1271;177491;-83
2022/02/04 13:25:53;;;;;;;9.60;5.40;;;;;;;3.44;71.63;96204.80;107370;1270;140498;-82
2022/02/04 13:28:28;;;;;;;9.40;5.10;;;;;;;3.44;71.87;96201.83;106039;1270;1815939;-83
2022/02/04 13:31:03;;;;;;;8.60;5.00;;;;;;;3.45;72.04;96202.94;105769;1270;2123654;-83
2022/02/04 13:33:42;;;;;;;11.20;4.90;;;;;;;3.43;72.15;96199.88;107414;1269;167947;-83
2022/02/04 13:36:24;;;;;;;8.00;5.20;;;;;;;3.39;72.26;96200.23;102740;1270;2574313;-83
2022/02/04 13:39:11;;;;;;;10.30;4.90;;;;;;;3.37;72.47;96202.40;107291;1270;269038;-83
2022/02/04 13:42:00;;;;;;;10.60;5.00;;;;;;;3.38;72.69;96203.11;105978;1269;2513369;-82
2022/02/04 13:44:40;;;;;;;11.50;6.20;;;;;;;3.40;72.64;96196.59;107030;1270;248583;-83
2022/02/04 13:47:24;;;;;;;;;;;;;;;3.37;72.73;96194.64;107240;1270;205115;-83
2022/02/04 13:50:17;;;;;;;11.70;5.50;;;;;;;3.33;72.84;96198.16;106054;1270;1738912;-83
2022/02/04 13:53:08;;;;;;;9.60;5.20;;;;;;;3.33;72.96;96202.65;105872;1270;1928457;-83
2022/02/04 13:55:53;;;;;;;;;;;;;;;3.34;73.09;96208.17;107340;1270;156026;-82
2022/02/04 13:58:38;;;;;;;8.80;5.30;;;;;;;3.32;73.23;96205.54;107198;1269;154951;-83
2022/02/04 14:01:17;;;;;;;15.40;6.10;;;;;;;3.30;73.29;96200.38;107336;1270;142059;-82
2022/02/04 14:03:52;;;;;;;12.90;6.60;;;;;;;3.30;73.40;96201.05;107335;1270;114964;-83
2022/02/04 14:06:29;;;;;;;15.80;6.60;;;;;;;3.25;73.64;96194.61;107403;1270;189640;-83
2022/02/04 14:09:15;;;;;;;13.70;6.60;;;;;;;3.21;73.75;96196.11;107420;1270;103680;-83
2022/02/04 14:11:46;;;;;;;11.40;6.50;;;;;;;3.18;73.89;96201.83;106033;1270;1615894;-83
2022/02/04 14:14:26;;;;;;;9.30;6.00;;;;;;;3.18;74.06;96207.59;105672;1270;2180373;-83
2022/02/04 14:17:03;;;;;;;10.70;6.10;;;;;;;3.17;74.15;96207.85;107362;1269;132585;-83
2022/02/04 14:19:35;;;;;;;12.90;6.30;;;;;;;3.14;74.37;96204.72;107365;1270;181704;-83
2022/02/04 14:22:09;;;;;;;14.50;7.00;;;;;;;3.12;74.79;96200.39;107508;1270;115395;-80
2022/02/04 14:24:40;;;;;;;14.80;6.20;;;;;;;3.08;75.00;96202.63;107151;1270;179120;-82
2022/02/04 14:27:11;;;;;;;12.80;7.30;;;;;;;3.06;75.30;96196.84;107151;1270;167692;-83
2022/02/04 14:29:52;;;;;;;13.00;6.80;;;;;;;3.04;75.50;96197.81;107421;1270;114817;-83
2022/02/04 14:32:28;;;;;;;12.90;6.90;;;;;;;3.00;75.65;96188.20;107301;1270;164229;-83
2022/02/04 14:35:07;;;;;;;14.60;6.90;;;;;;;2.97;75.76;96188.30;107132;1270;251525;-83
2022/02/04 14:52:03;;;;;;;14.00;7.00;;;;;;;2.96;76.41;96178.13;105835;1270;1881571;-83
2022/02/04 14:54:48;;;;;;;12.10;5.80;;;;;;;2.97;76.60;96177.83;107392;1270;222383;-83
2022/02/04 15:00:34;;;;;;;11.00;5.50;;;;;;;2.98;76.65;96183.30;106414;1270;1311405;-81
2022/02/04 15:03:20;;;;;;;13.60;6.20;;;;;;;3.01;76.64;96177.66;106239;1270;1786875;-83
2022/02/04 15:06:12;;;;;;;16.10;6.00;;;;;;;3.02;76.70;96169.66;106509;1270;1241658;-83
2022/02/04 15:08:45;;;;;;;11.00;5.80;;;;;;;3.01;76.75;96170.70;105838;1270;2155147;-83
2022/02/04 15:11:18;;;;;;;10.50;5.90;;;;;;;3.01;76.81;96176.14;107368;1270;112981;-83
2022/02/04 15:13:50;;;;;;;13.30;6.50;;;;;;;2.98;76.82;96184.29;107230;1270;161774;-83
2022/02/04 15:16:22;;;;;;;10.50;5.60;;;;;;;2.98;76.89;96190.98;107282;1270;204165;-83
2022/02/04 15:18:53;;;;;;;10.80;5.90;;;;;;;3.00;76.97;96192.42;107240;1270;202897;-83
2022/02/04 15:21:25;;;;;;;8.00;5.00;;;;;;;3.03;77.01;96194.66;107183;1270;140945;-83
2022/02/04 15:23:58;;;;;;;8.50;4.70;;;;;;;3.04;77.14;96194.56;107407;1270;112681;-83
2022/02/04 15:26:31;;;;;;;13.40;6.40;;;;;;;3.04;77.23;96190.16;107208;1270;122584;-83
2022/02/04 15:29:05;;;;;;;12.00;5.60;;;;;;;3.02;77.41;96194.02;107361;1270;188188;-83
2022/02/04 15:31:42;;;;;;;10.40;6.30;;;;;;;3.03;77.41;96194.24;107474;1270;170518;-83
2022/02/04 15:34:16;;;;;;;8.90;5.10;;;;;;;3.02;77.38;96195.33;107275;1270;231924;-83
2022/02/04 15:36:48;;;;;;;10.00;5.40;;;;;;;3.02;77.37;96197.27;107045;1270;326128;-83
2022/02/04 15:39:22;;;;;;;11.90;6.20;;;;;;;3.02;77.37;96198.47;105931;1271;1611623;-83
2022/02/04 15:41:56;;;;;;;12.40;6.90;;;;;;;3.01;77.43;96196.41;107453;1270;165959;-84
2022/02/04 15:44:37;;;;;;;7.60;4.60;;;;;;;3.00;77.49;96195.98;107164;1270;177625;-83
2022/02/04 15:50:18;;;;;;;11.00;5.60;;;;;;;2.99;77.60;96205.82;107367;1268;235881;-83
2022/02/04 15:53:02;;;;;;;13.20;6.80;;;;;;;2.98;77.55;96206.90;105539;1270;2188170;-83
2022/02/04 15:58:37;;;;;;;11.90;6.60;;;;;;;2.96;77.61;96207.91;105941;1270;1946465;-83
2022/02/04 16:01:20;;;;;;;10.10;6.10;;;;;;;2.94;77.63;96209.81;106017;1270;2081927;-82
2022/02/04 16:06:46;;;;;;;15.90;7.80;;;;;;;2.89;78.03;96216.45;107334;1270;155831;-83
2022/02/04 16:09:20;;;;;;;15.00;8.70;;;;;;;2.87;78.20;96211.92;107416;1270;131165;-83
2022/02/04 16:12:01;;;;;;;13.20;7.60;;;;;;;2.83;78.27;96204.05;106257;1271;1517771;-83
2022/02/04 16:14:39;;;;;;;17.40;7.80;;;;;;;2.78;78.45;96206.85;107619;1270;100631;-83
2022/02/04 16:17:19;;;;;;;16.10;8.30;;;;;;;2.75;78.64;96209.94;107243;1271;149085;-83
2022/02/04 16:20:07;;;;;;;16.00;9.30;;;;;;;2.73;78.93;96207.34;106109;1270;1744589;-83
2022/02/04 16:22:58;;;;;;;19.10;7.00;;;;;;;2.72;78.99;96211.73;106168;1268;1826918;-82
2022/02/04 16:25:44;;;;;;;14.30;8.20;;;;;;;2.71;78.98;96207.16;104680;1270;2068257;-83
2022/02/04 16:31:06;;;;;;;13.30;7.90;;;;;;;2.71;78.99;96205.81;107539;1271;137405;-83
2022/02/04 16:33:42;;;;;;;18.70;8.80;;;;;;;2.72;79.19;96204.15;106141;1270;2233288;-83
2022/02/04 16:36:26;;;;;;;10.00;5.70;;;;;;;2.71;79.16;96202.92;107099;1270;256788;-83